sensor_id;sensor_type;location;lat;lon;timestamp;pressure;altitude;pressure_sealevel;temperature;humidity
63287;BME280;49410;55.708;37.522;2023-03-03T00:00:41;98048.06;;;-0.09;nan
63287;BME280;49410;55.708;37.522;2023-03-03T00:03:09;98022.50;;;-0.23;nan
63287;BME280;49410;55.708;37.522;2023-03-03T00:05:37;98020.09;;;-0.16;nan
63287;BME280;49410;55.708;37.522;2023-03-03T00:08:04;98017.84;;;-0.21;nan
63287;BME280;49410;55.708;37.522;2023-03-03T00:10:29;98024.88;;;-0.10;nan
63287;BME280;49410;55.708;37.522;2023-03-03T00:12:55;98018.94;;;-0.13;nan
63287;BME280;49410;55.708;37.522;2023-03-03T00:15:24;98025.72;;;-0.09;nan
63287;BME280;49410;55.708;37.522;2023-03-03T00:17:50;98006.78;;;-0.08;nan
63287;BME280;49410;55.708;37.522;2023-03-03T00:20:35;98022.19;;;0.00;nan
63287;BME280;49410;55.708;37.522;2023-03-03T00:23:23;98025.56;;;0.02;nan
63287;BME280;49410;55.708;37.522;2023-03-03T00:25:52;98012.69;;;0.06;nan
63287;BME280;49410;55.708;37.522;2023-03-03T00:28:28;98020.34;;;0.01;nan
63287;BME280;49410;55.708;37.522;2023-03-03T00:30:59;97994.88;;;-0.05;nan
63287;BME280;49410;55.708;37.522;2023-03-03T00:33:38;97999.66;;;0.01;nan
63287;BME280;49410;55.708;37.522;2023-03-03T00:38:36;98006.84;;;0.20;nan
63287;BME280;49410;55.708;37.522;2023-03-03T00:41:07;97962.34;;;-0.02;nan
63287;BME280;49410;55.708;37.522;2023-03-03T00:43:35;97984.09;;;0.14;nan
63287;BME280;49410;55.708;37.522;2023-03-03T00:46:02;97977.88;;;0.14;nan
63287;BME280;49410;55.708;37.522;2023-03-03T00:48:28;97977.13;;;0.22;nan
63287;BME280;49410;55.708;37.522;2023-03-03T00:50:59;97970.38;;;0.18;nan
63287;BME280;49410;55.708;37.522;2023-03-03T00:53:27;97969.31;;;0.28;nan
63287;BME280;49410;55.708;37.522;2023-03-03T00:55:54;97974.13;;;0.35;nan
63287;BME280;49410;55.708;37.522;2023-03-03T00:58:21;97965.38;;;0.33;nan
63287;BME280;49410;55.708;37.522;2023-03-03T01:00:52;97969.44;;;0.37;nan
63287;BME280;49410;55.708;37.522;2023-03-03T01:03:20;97964.22;;;0.35;nan
63287;BME280;49410;55.708;37.522;2023-03-03T01:05:47;97961.97;;;0.21;nan
63287;BME280;49410;55.708;37.522;2023-03-03T01:08:13;97960.25;;;0.29;nan
63287;BME280;49410;55.708;37.522;2023-03-03T01:10:50;97975.13;;;0.34;nan
63287;BME280;49410;55.708;37.522;2023-03-03T01:13:18;97970.13;;;0.39;nan
63287;BME280;49410;55.708;37.522;2023-03-03T01:15:44;97951.22;;;0.30;nan
63287;BME280;49410;55.708;37.522;2023-03-03T01:18:11;97962.94;;;0.39;nan
63287;BME280;49410;55.708;37.522;2023-03-03T01:20:37;97942.03;;;0.23;nan
63287;BME280;49410;55.708;37.522;2023-03-03T01:23:03;97954.34;;;0.26;nan
63287;BME280;49410;55.708;37.522;2023-03-03T01:25:29;97948.69;;;0.19;nan
63287;BME280;49410;55.708;37.522;2023-03-03T01:27:55;97942.03;;;0.23;nan
63287;BME280;49410;55.708;37.522;2023-03-03T01:30:20;97935.97;;;0.21;nan
63287;BME280;49410;55.708;37.522;2023-03-03T01:32:46;97940.38;;;0.12;nan
63287;BME280;49410;55.708;37.522;2023-03-03T01:35:12;97944.63;;;0.15;nan
63287;BME280;49410;55.708;37.522;2023-03-03T01:37:38;97950.69;;;0.17;nan
63287;BME280;49410;55.708;37.522;2023-03-03T01:40:06;97930.75;;;0.10;nan
63287;BME280;49410;55.708;37.522;2023-03-03T01:42:36;97931.75;;;0.09;nan
63287;BME280;49410;55.708;37.522;2023-03-03T01:45:29;97955.19;;;0.26;nan
63287;BME280;49410;55.708;37.522;2023-03-03T01:48:04;97931.84;;;0.17;nan
63287;BME280;49410;55.708;37.522;2023-03-03T01:53:04;97951.94;;;0.23;nan
63287;BME280;49410;55.708;37.522;2023-03-03T01:55:36;97940.38;;;0.12;nan
63287;BME280;49410;55.708;37.522;2023-03-03T01:58:10;97948.25;;;0.24;nan
63287;BME280;49410;55.708;37.522;2023-03-03T02:00:40;97924.50;;;0.19;nan
63287;BME280;49410;55.708;37.522;2023-03-03T02:03:07;97917.53;;;0.26;nan
63287;BME280;49410;55.708;37.522;2023-03-03T02:05:34;97932.78;;;0.36;nan
63287;BME280;49410;55.708;37.522;2023-03-03T02:08:00;97928.88;;;0.30;nan
63287;BME280;49410;55.708;37.522;2023-03-03T02:10:26;97933.53;;;0.28;nan
63287;BME280;49410;55.708;37.522;2023-03-03T02:12:55;97922.47;;;0.31;nan
63287;BME280;49410;55.708;37.522;2023-03-03T02:15:30;97924.91;;;0.24;nan
63287;BME280;49410;55.708;37.522;2023-03-03T02:18:10;97915.25;;;0.32;nan
63287;BME280;49410;55.708;37.522;2023-03-03T02:20:53;97913.13;;;0.35;nan
63287;BME280;49410;55.708;37.522;2023-03-03T02:23:28;97913.22;;;0.43;nan
63287;BME280;49410;55.708;37.522;2023-03-03T02:28:21;97908.00;;;0.42;nan
63287;BME280;49410;55.708;37.522;2023-03-03T02:30:47;97889.91;;;0.34;nan
63287;BME280;49410;55.708;37.522;2023-03-03T02:33:13;97900.63;;;0.44;nan
63287;BME280;49410;55.708;37.522;2023-03-03T02:35:39;97893.56;;;0.43;nan
63287;BME280;49410;55.708;37.522;2023-03-03T02:38:16;97891.69;;;0.43;nan
63287;BME280;49410;55.708;37.522;2023-03-03T02:41:34;97879.56;;;0.39;nan
63287;BME280;49410;55.708;37.522;2023-03-03T02:46:33;97870.00;;;0.27;nan
63287;BME280;49410;55.708;37.522;2023-03-03T02:48:59;97871.28;;;0.23;nan
63287;BME280;49410;55.708;37.522;2023-03-03T02:51:24;97874.13;;;0.21;nan
63287;BME280;49410;55.708;37.522;2023-03-03T02:53:50;97880.47;;;0.30;nan
63287;BME280;49410;55.708;37.522;2023-03-03T02:56:16;97873.84;;;0.24;nan
63287;BME280;49410;55.708;37.522;2023-03-03T02:58:41;97885.69;;;0.32;nan
63287;BME280;49410;55.708;37.522;2023-03-03T03:01:07;97873.47;;;0.37;nan
63287;BME280;49410;55.708;37.522;2023-03-03T03:03:32;97869.53;;;0.32;nan
63287;BME280;49410;55.708;37.522;2023-03-03T03:05:58;97876.63;;;0.33;nan
63287;BME280;49410;55.708;37.522;2023-03-03T03:08:23;97846.63;;;0.27;nan
63287;BME280;49410;55.708;37.522;2023-03-03T03:10:49;97861.22;;;0.25;nan
63287;BME280;49410;55.708;37.522;2023-03-03T03:13:15;97863.16;;;0.33;nan
63287;BME280;49410;55.708;37.522;2023-03-03T03:15:40;97854.66;;;0.37;nan
63287;BME280;49410;55.708;37.522;2023-03-03T03:18:06;97870.13;;;0.53;nan
63287;BME280;49410;55.708;37.522;2023-03-03T03:20:36;97847.13;;;0.41;nan
63287;BME280;49410;55.708;37.522;2023-03-03T03:23:02;97864.97;;;0.42;nan
63287;BME280;49410;55.708;37.522;2023-03-03T03:25:27;97869.72;;;0.48;nan
63287;BME280;49410;55.708;37.522;2023-03-03T03:27:53;97859.16;;;0.37;nan
63287;BME280;49410;55.708;37.522;2023-03-03T03:30:18;97862.63;;;0.29;nan
63287;BME280;49410;55.708;37.522;2023-03-03T03:32:45;97862.31;;;0.32;nan
63287;BME280;49410;55.708;37.522;2023-03-03T03:35:11;97858.19;;;0.38;nan
63287;BME280;49410;55.708;37.522;2023-03-03T03:37:36;97841.78;;;0.31;nan
63287;BME280;49410;55.708;37.522;2023-03-03T03:40:02;97856.94;;;0.32;nan
63287;BME280;49410;55.708;37.522;2023-03-03T03:42:28;97851.63;;;0.22;nan
63287;BME280;49410;55.708;37.522;2023-03-03T03:44:53;97855.81;;;0.35;nan
63287;BME280;49410;55.708;37.522;2023-03-03T03:47:19;97856.47;;;0.37;nan
63287;BME280;49410;55.708;37.522;2023-03-03T03:49:44;97847.56;;;0.36;nan
63287;BME280;49410;55.708;37.522;2023-03-03T03:52:10;97818.41;;;0.13;nan
63287;BME280;49410;55.708;37.522;2023-03-03T03:54:35;97841.94;;;0.29;nan
63287;BME280;49410;55.708;37.522;2023-03-03T03:57:01;97836.72;;;0.28;nan
63287;BME280;49410;55.708;37.522;2023-03-03T03:59:26;97829.13;;;0.23;nan
63287;BME280;49410;55.708;37.522;2023-03-03T04:01:52;97823.81;;;0.32;nan
63287;BME280;49410;55.708;37.522;2023-03-03T04:04:17;97836.28;;;0.33;nan
63287;BME280;49410;55.708;37.522;2023-03-03T04:06:43;97837.91;;;0.43;nan
63287;BME280;49410;55.708;37.522;2023-03-03T04:09:09;97832.59;;;0.34;nan
63287;BME280;49410;55.708;37.522;2023-03-03T04:11:35;97824.38;;;0.35;nan
63287;BME280;49410;55.708;37.522;2023-03-03T04:14:00;97807.69;;;0.32;nan
63287;BME280;49410;55.708;37.522;2023-03-03T04:16:25;97788.91;;;0.22;nan
63287;BME280;49410;55.708;37.522;2023-03-03T04:18:51;97830.56;;;0.36;nan
63287;BME280;49410;55.708;37.522;2023-03-03T04:21:16;97811.75;;;0.36;nan
63287;BME280;49410;55.708;37.522;2023-03-03T04:23:42;97835.22;;;0.43;nan
63287;BME280;49410;55.708;37.522;2023-03-03T04:26:08;97825.59;;;0.41;nan
63287;BME280;49410;55.708;37.522;2023-03-03T04:28:34;97816.91;;;0.29;nan
63287;BME280;49410;55.708;37.522;2023-03-03T04:31:00;97828.91;;;0.35;nan
63287;BME280;49410;55.708;37.522;2023-03-03T04:33:25;97829.94;;;0.24;nan
63287;BME280;49410;55.708;37.522;2023-03-03T04:35:51;97817.81;;;0.20;nan
63287;BME280;49410;55.708;37.522;2023-03-03T04:38:17;97825.44;;;0.24;nan
63287;BME280;49410;55.708;37.522;2023-03-03T04:40:42;97826.34;;;0.33;nan
63287;BME280;49410;55.708;37.522;2023-03-03T04:43:09;97809.06;;;0.18;nan
63287;BME280;49410;55.708;37.522;2023-03-03T04:45:36;97825.28;;;0.26;nan
63287;BME280;49410;55.708;37.522;2023-03-03T04:48:01;97827.81;;;0.27;nan
63287;BME280;49410;55.708;37.522;2023-03-03T04:50:27;97815.66;;;0.23;nan
63287;BME280;49410;55.708;37.522;2023-03-03T04:52:52;97809.69;;;0.29;nan
63287;BME280;49410;55.708;37.522;2023-03-03T04:55:18;97818.75;;;0.28;nan
63287;BME280;49410;55.708;37.522;2023-03-03T04:57:44;97823.13;;;0.29;nan
63287;BME280;49410;55.708;37.522;2023-03-03T05:00:11;97811.91;;;0.34;nan
63287;BME280;49410;55.708;37.522;2023-03-03T05:02:40;97816.31;;;0.35;nan
63287;BME280;49410;55.708;37.522;2023-03-03T05:05:07;97794.06;;;0.15;nan
63287;BME280;49410;55.708;37.522;2023-03-03T05:07:34;97822.97;;;0.31;nan
63287;BME280;49410;55.708;37.522;2023-03-03T05:09:59;97818.44;;;0.32;nan
63287;BME280;49410;55.708;37.522;2023-03-03T05:12:25;97819.25;;;0.42;nan
63287;BME280;49410;55.708;37.522;2023-03-03T05:14:51;97828.94;;;0.53;nan
63287;BME280;49410;55.708;37.522;2023-03-03T05:17:17;97958.91;;;0.53;nan
63287;BME280;49410;55.708;37.522;2023-03-03T05:19:42;97820.25;;;0.59;nan
63287;BME280;49410;55.708;37.522;2023-03-03T05:22:08;97815.22;;;0.46;nan
63287;BME280;49410;55.708;37.522;2023-03-03T05:24:34;97835.41;;;0.60;nan
63287;BME280;49410;55.708;37.522;2023-03-03T05:27:00;97837.53;;;0.56;nan
63287;BME280;49410;55.708;37.522;2023-03-03T05:29:25;97838.56;;;0.55;nan
63287;BME280;49410;55.708;37.522;2023-03-03T05:31:52;97832.72;;;0.60;nan
63287;BME280;49410;55.708;37.522;2023-03-03T05:34:18;97827.34;;;0.60;nan
63287;BME280;49410;55.708;37.522;2023-03-03T05:36:43;97827.00;;;0.63;nan
63287;BME280;49410;55.708;37.522;2023-03-03T05:39:09;97834.94;;;0.65;nan
63287;BME280;49410;55.708;37.522;2023-03-03T05:41:34;97823.09;;;0.57;nan
63287;BME280;49410;55.708;37.522;2023-03-03T05:44:01;97824.84;;;0.67;nan
63287;BME280;49410;55.708;37.522;2023-03-03T05:46:27;97824.63;;;0.78;nan
63287;BME280;49410;55.708;37.522;2023-03-03T05:48:53;97838.25;;;0.76;nan
63287;BME280;49410;55.708;37.522;2023-03-03T05:51:18;97823.28;;;0.74;nan
63287;BME280;49410;55.708;37.522;2023-03-03T05:53:44;97823.78;;;0.59;nan
63287;BME280;49410;55.708;37.522;2023-03-03T05:56:09;97823.25;;;0.56;nan
63287;BME280;49410;55.708;37.522;2023-03-03T05:58:35;97843.00;;;0.46;nan
63287;BME280;49410;55.708;37.522;2023-03-03T06:01:00;97827.75;;;0.37;nan
63287;BME280;49410;55.708;37.522;2023-03-03T06:03:26;97843.31;;;0.61;nan
63287;BME280;49410;55.708;37.522;2023-03-03T06:05:51;97839.47;;;0.64;nan
63287;BME280;49410;55.708;37.522;2023-03-03T06:08:17;97825.31;;;0.62;nan
63287;BME280;49410;55.708;37.522;2023-03-03T06:10:42;97839.25;;;0.75;nan
63287;BME280;49410;55.708;37.522;2023-03-03T06:13:08;97844.72;;;0.84;nan
63287;BME280;49410;55.708;37.522;2023-03-03T06:15:34;97840.50;;;0.81;nan
63287;BME280;49410;55.708;37.522;2023-03-03T06:17:59;97848.34;;;0.92;nan
63287;BME280;49410;55.708;37.522;2023-03-03T06:20:24;97848.03;;;0.96;nan
63287;BME280;49410;55.708;37.522;2023-03-03T06:22:50;97844.41;;;0.87;nan
63287;BME280;49410;55.708;37.522;2023-03-03T06:25:16;97846.34;;;0.76;nan
63287;BME280;49410;55.708;37.522;2023-03-03T06:27:41;97820.97;;;0.61;nan
63287;BME280;49410;55.708;37.522;2023-03-03T06:30:07;97833.97;;;0.66;nan
63287;BME280;49410;55.708;37.522;2023-03-03T06:32:34;97854.00;;;0.71;nan
63287;BME280;49410;55.708;37.522;2023-03-03T06:34:59;97836.09;;;0.80;nan
63287;BME280;49410;55.708;37.522;2023-03-03T06:37:25;97812.81;;;0.71;nan
63287;BME280;49410;55.708;37.522;2023-03-03T06:39:50;97843.19;;;0.99;nan
63287;BME280;49410;55.708;37.522;2023-03-03T06:42:17;97843.56;;;1.04;nan
63287;BME280;49410;55.708;37.522;2023-03-03T06:44:43;97854.66;;;1.01;nan
63287;BME280;49410;55.708;37.522;2023-03-03T06:47:08;97816.66;;;0.86;nan
63287;BME280;49410;55.708;37.522;2023-03-03T06:49:34;97846.13;;;1.06;nan
63287;BME280;49410;55.708;37.522;2023-03-03T06:52:04;97841.97;;;1.12;nan
63287;BME280;49410;55.708;37.522;2023-03-03T06:54:29;97837.63;;;1.19;nan
63287;BME280;49410;55.708;37.522;2023-03-03T06:57:00;97855.56;;;1.10;nan
63287;BME280;49410;55.708;37.522;2023-03-03T06:59:31;97853.84;;;1.27;nan
63287;BME280;49410;55.708;37.522;2023-03-03T07:01:57;97847.25;;;1.21;nan
63287;BME280;49410;55.708;37.522;2023-03-03T07:04:31;97843.03;;;1.19;nan
63287;BME280;49410;55.708;37.522;2023-03-03T07:07:06;97842.50;;;1.15;nan
63287;BME280;49410;55.708;37.522;2023-03-03T07:09:32;97859.19;;;1.01;nan
63287;BME280;49410;55.708;37.522;2023-03-03T07:12:08;97853.31;;;0.87;nan
63287;BME280;49410;55.708;37.522;2023-03-03T07:14:41;97867.56;;;0.80;nan
63287;BME280;49410;55.708;37.522;2023-03-03T07:17:14;97864.78;;;0.89;nan
63287;BME280;49410;55.708;37.522;2023-03-03T07:19:42;97847.19;;;0.95;nan
63287;BME280;49410;55.708;37.522;2023-03-03T07:24:39;97869.16;;;0.90;nan
63287;BME280;49410;55.708;37.522;2023-03-03T07:29:32;97860.19;;;1.00;nan
63287;BME280;49410;55.708;37.522;2023-03-03T07:32:00;97842.78;;;0.94;nan
63287;BME280;49410;55.708;37.522;2023-03-03T07:37:26;97866.63;;;1.25;nan
63287;BME280;49410;55.708;37.522;2023-03-03T07:39:53;97861.63;;;1.12;nan
63287;BME280;49410;55.708;37.522;2023-03-03T07:42:39;97870.34;;;0.88;nan
63287;BME280;49410;55.708;37.522;2023-03-03T07:45:35;97866.56;;;0.99;nan
63287;BME280;49410;55.708;37.522;2023-03-03T07:51:42;97873.81;;;0.98;nan
63287;BME280;49410;55.708;37.522;2023-03-03T07:54:26;97869.41;;;1.15;nan
63287;BME280;49410;55.708;37.522;2023-03-03T07:57:00;97865.78;;;1.24;nan
63287;BME280;49410;55.708;37.522;2023-03-03T07:59:27;97854.31;;;1.22;nan
63287;BME280;49410;55.708;37.522;2023-03-03T08:01:54;97855.91;;;1.33;nan
63287;BME280;49410;55.708;37.522;2023-03-03T08:04:34;97876.03;;;1.21;nan
63287;BME280;49410;55.708;37.522;2023-03-03T08:07:11;97855.78;;;1.17;nan
63287;BME280;49410;55.708;37.522;2023-03-03T08:10:00;97859.53;;;1.24;nan
63287;BME280;49410;55.708;37.522;2023-03-03T08:12:41;97861.22;;;1.43;nan
63287;BME280;49410;55.708;37.522;2023-03-03T08:22:51;97869.34;;;1.69;nan
63287;BME280;49410;55.708;37.522;2023-03-03T08:25:16;97875.19;;;1.91;nan
63287;BME280;49410;55.708;37.522;2023-03-03T08:27:42;97876.00;;;1.83;nan
63287;BME280;49410;55.708;37.522;2023-03-03T08:30:08;97875.78;;;1.77;nan
63287;BME280;49410;55.708;37.522;2023-03-03T08:32:33;97869.69;;;1.75;nan
63287;BME280;49410;55.708;37.522;2023-03-03T08:34:59;97877.78;;;2.01;nan
63287;BME280;49410;55.708;37.522;2023-03-03T08:37:24;97871.50;;;1.92;nan
63287;BME280;49410;55.708;37.522;2023-03-03T08:39:50;97878.13;;;1.98;nan
63287;BME280;49410;55.708;37.522;2023-03-03T08:42:16;97872.81;;;1.88;nan
63287;BME280;49410;55.708;37.522;2023-03-03T08:44:42;97876.56;;;1.95;nan
63287;BME280;49410;55.708;37.522;2023-03-03T08:47:14;97880.03;;;2.14;nan
63287;BME280;49410;55.708;37.522;2023-03-03T08:49:40;97884.13;;;1.92;nan
63287;BME280;49410;55.708;37.522;2023-03-03T08:52:06;97893.72;;;2.21;nan
63287;BME280;49410;55.708;37.522;2023-03-03T08:54:34;97882.63;;;2.24;nan
63287;BME280;49410;55.708;37.522;2023-03-03T08:57:08;97880.63;;;1.99;nan
63287;BME280;49410;55.708;37.522;2023-03-03T08:59:41;97886.84;;;2.26;nan
63287;BME280;49410;55.708;37.522;2023-03-03T09:02:13;97907.06;;;2.22;nan
63287;BME280;49410;55.708;37.522;2023-03-03T09:04:44;97879.91;;;1.63;nan
63287;BME280;49410;55.708;37.522;2023-03-03T09:07:10;97892.69;;;1.87;nan
63287;BME280;49410;55.708;37.522;2023-03-03T09:09:35;97895.53;;;2.12;nan
63287;BME280;49410;55.708;37.522;2023-03-03T09:12:36;97889.94;;;1.79;nan
63287;BME280;49410;55.708;37.522;2023-03-03T09:15:26;97887.53;;;1.49;nan
63287;BME280;49410;55.708;37.522;2023-03-03T09:17:57;97887.91;;;1.54;nan
63287;BME280;49410;55.708;37.522;2023-03-03T09:20:33;97889.84;;;1.62;nan
63287;BME280;49410;55.708;37.522;2023-03-03T09:25:41;97889.41;;;2.01;nan
63287;BME280;49410;55.708;37.522;2023-03-03T09:28:33;97881.44;;;1.92;nan
63287;BME280;49410;55.708;37.522;2023-03-03T09:31:02;97895.38;;;2.13;nan
63287;BME280;49410;55.708;37.522;2023-03-03T09:33:45;97892.56;;;2.23;nan
63287;BME280;49410;55.708;37.522;2023-03-03T09:36:35;97892.91;;;2.28;nan
63287;BME280;49410;55.708;37.522;2023-03-03T09:39:15;97899.81;;;2.23;nan
63287;BME280;49410;55.708;37.522;2023-03-03T09:42:11;97882.06;;;2.12;nan
63287;BME280;49410;55.708;37.522;2023-03-03T09:48:01;97891.25;;;2.36;nan
63287;BME280;49410;55.708;37.522;2023-03-03T09:50:53;97891.44;;;2.34;nan
63287;BME280;49410;55.708;37.522;2023-03-03T09:55:58;97898.97;;;2.57;nan
63287;BME280;49410;55.708;37.522;2023-03-03T10:04:53;97891.00;;;2.55;nan
63287;BME280;49410;55.708;37.522;2023-03-03T10:18:28;97888.91;;;2.32;nan
63287;BME280;49410;55.708;37.522;2023-03-03T10:21:03;97891.66;;;2.49;nan
63287;BME280;49410;55.708;37.522;2023-03-03T10:26:42;97883.81;;;2.29;nan
63287;BME280;49410;55.708;37.522;2023-03-03T10:54:37;97872.81;;;2.57;nan
63287;BME280;49410;55.708;37.522;2023-03-03T10:59:36;97888.34;;;2.63;nan
63287;BME280;49410;55.708;37.522;2023-03-03T11:02:28;97895.28;;;2.74;nan
63287;BME280;49410;55.708;37.522;2023-03-03T11:05:20;97887.88;;;2.68;nan
63287;BME280;49410;55.708;37.522;2023-03-03T11:08:13;97896.75;;;2.52;nan
63287;BME280;49410;55.708;37.522;2023-03-03T11:13:55;97894.31;;;2.84;nan
63287;BME280;49410;55.708;37.522;2023-03-03T11:19:45;97894.09;;;2.69;nan
63287;BME280;49410;55.708;37.522;2023-03-03T11:34:07;97901.31;;;2.25;nan
63287;BME280;49410;55.708;37.522;2023-03-03T11:36:46;97906.63;;;2.35;nan
63287;BME280;49410;55.708;37.522;2023-03-03T11:39:17;97897.38;;;2.46;nan
63287;BME280;49410;55.708;37.522;2023-03-03T11:42:00;97901.56;;;2.40;nan
63287;BME280;49410;55.708;37.522;2023-03-03T11:44:35;97890.50;;;2.52;nan
63287;BME280;49410;55.708;37.522;2023-03-03T11:49:59;97890.56;;;2.68;nan
63287;BME280;49410;55.708;37.522;2023-03-03T11:52:47;97897.16;;;2.74;nan
63287;BME280;49410;55.708;37.522;2023-03-03T11:55:35;97890.72;;;2.75;nan
63287;BME280;49410;55.708;37.522;2023-03-03T12:01:13;97898.31;;;2.71;nan
63287;BME280;49410;55.708;37.522;2023-03-03T12:03:46;97902.22;;;2.77;nan
63287;BME280;49410;55.708;37.522;2023-03-03T12:06:40;97907.41;;;2.70;nan
63287;BME280;49410;55.708;37.522;2023-03-03T12:12:06;97905.41;;;2.29;nan
63287;BME280;49410;55.708;37.522;2023-03-03T12:20:35;97894.34;;;2.41;nan
63287;BME280;49410;55.708;37.522;2023-03-03T12:25:48;97910.59;;;2.57;nan
63287;BME280;49410;55.708;37.522;2023-03-03T12:28:35;97909.88;;;2.47;nan
63287;BME280;49410;55.708;37.522;2023-03-03T12:33:59;97896.94;;;2.59;nan
63287;BME280;49410;55.708;37.522;2023-03-03T12:37:22;97901.97;;;2.54;nan
63287;BME280;49410;55.708;37.522;2023-03-03T12:44:43;97897.06;;;2.14;nan
63287;BME280;49410;55.708;37.522;2023-03-03T12:47:28;97894.44;;;2.31;nan
63287;BME280;49410;55.708;37.522;2023-03-03T12:55:42;97922.00;;;2.43;nan
63287;BME280;49410;55.708;37.522;2023-03-03T12:58:48;97906.06;;;2.23;nan
63287;BME280;49410;55.708;37.522;2023-03-03T13:09:21;97899.56;;;2.42;nan
63287;BME280;49410;55.708;37.522;2023-03-03T13:17:47;97912.59;;;2.55;nan
63287;BME280;49410;55.708;37.522;2023-03-03T13:28:36;97907.03;;;2.48;nan
63287;BME280;49410;55.708;37.522;2023-03-03T13:31:13;97901.41;;;2.33;nan
63287;BME280;49410;55.708;37.522;2023-03-03T13:33:43;97915.41;;;2.37;nan
63287;BME280;49410;55.708;37.522;2023-03-03T13:36:16;97892.63;;;2.31;nan
63287;BME280;49410;55.708;37.522;2023-03-03T13:38:51;97898.00;;;2.31;nan
63287;BME280;49410;55.708;37.522;2023-03-03T13:41:26;97877.94;;;2.34;nan
63287;BME280;49410;55.708;37.522;2023-03-03T13:49:36;97897.72;;;2.43;nan
63287;BME280;49410;55.708;37.522;2023-03-03T13:52:11;97885.69;;;2.29;nan
63287;BME280;49410;55.708;37.522;2023-03-03T13:54:58;97893.31;;;2.33;nan
63287;BME280;49410;55.708;37.522;2023-03-03T13:57:53;97888.22;;;1.96;nan
63287;BME280;49410;55.708;37.522;2023-03-03T14:00:39;97898.91;;;2.14;nan
63287;BME280;49410;55.708;37.522;2023-03-03T14:03:43;97896.53;;;2.11;nan
63287;BME280;49410;55.708;37.522;2023-03-03T14:06:19;97890.22;;;1.94;nan
63287;BME280;49410;55.708;37.522;2023-03-03T14:19:46;97894.22;;;1.90;nan
63287;BME280;49410;55.708;37.522;2023-03-03T14:25:13;97895.94;;;1.99;nan
63287;BME280;49410;55.708;37.522;2023-03-03T14:35:34;97905.56;;;1.93;nan
63287;BME280;49410;55.708;37.522;2023-03-03T14:38:07;97900.47;;;1.90;nan
63287;BME280;49410;55.708;37.522;2023-03-03T14:40:36;97904.59;;;1.76;nan
63287;BME280;49410;55.708;37.522;2023-03-03T14:45:43;97905.81;;;1.82;nan
63287;BME280;49410;55.708;37.522;2023-03-03T14:48:16;97916.94;;;1.87;nan
63287;BME280;49410;55.708;37.522;2023-03-03T14:53:30;97903.78;;;1.84;nan
63287;BME280;49410;55.708;37.522;2023-03-03T14:58:47;97906.06;;;1.70;nan
63287;BME280;49410;55.708;37.522;2023-03-03T15:06:50;97909.00;;;1.59;nan
63287;BME280;49410;55.708;37.522;2023-03-03T15:11:53;97914.91;;;1.63;nan
63287;BME280;49410;55.708;37.522;2023-03-03T15:16:56;97904.84;;;1.65;nan
63287;BME280;49410;55.708;37.522;2023-03-03T15:25:27;97923.34;;;1.86;nan
63287;BME280;49410;55.708;37.522;2023-03-03T15:36:06;97933.34;;;1.94;nan
63287;BME280;49410;55.708;37.522;2023-03-03T15:44:04;97935.28;;;1.83;nan
63287;BME280;49410;55.708;37.522;2023-03-03T15:49:27;97939.00;;;1.82;nan
63287;BME280;49410;55.708;37.522;2023-03-03T16:03:29;97927.47;;;1.72;nan
63287;BME280;49410;55.708;37.522;2023-03-03T16:06:04;97934.38;;;1.75;nan
63287;BME280;49410;55.708;37.522;2023-03-03T16:08:53;97940.16;;;1.80;nan
63287;BME280;49410;55.708;37.522;2023-03-03T16:20:00;97935.72;;;1.70;nan
63287;BME280;49410;55.708;37.522;2023-03-03T16:22:44;97936.41;;;1.73;nan
63287;BME280;49410;55.708;37.522;2023-03-03T16:28:21;97911.41;;;1.62;nan
63287;BME280;49410;55.708;37.522;2023-03-03T16:33:30;97923.53;;;1.66;nan
63287;BME280;49410;55.708;37.522;2023-03-03T16:36:07;97934.84;;;1.70;nan
63287;BME280;49410;55.708;37.522;2023-03-03T16:38:46;97922.47;;;1.59;nan
63287;BME280;49410;55.708;37.522;2023-03-03T16:41:46;97927.09;;;1.67;nan
63287;BME280;49410;55.708;37.522;2023-03-03T16:46:47;97910.53;;;1.62;nan
63287;BME280;49410;55.708;37.522;2023-03-03T16:50:07;97926.63;;;1.72;nan
63287;BME280;49410;55.708;37.522;2023-03-03T16:52:02;97931.16;;;1.71;nan
63287;BME280;49410;55.708;37.522;2023-03-03T16:57:18;97923.22;;;1.69;nan
63287;BME280;49410;55.708;37.522;2023-03-03T17:02:40;97912.94;;;1.65;nan
63287;BME280;49410;55.708;37.522;2023-03-03T17:16:14;97926.72;;;1.44;nan
63287;BME280;49410;55.708;37.522;2023-03-03T17:30:21;97936.06;;;1.31;nan
63287;BME280;49410;55.708;37.522;2023-03-03T17:38:35;97932.47;;;1.13;nan
63287;BME280;49410;55.708;37.522;2023-03-03T17:46:34;97936.47;;;0.90;nan
63287;BME280;49410;55.708;37.522;2023-03-03T17:57:26;97933.47;;;0.93;nan
63287;BME280;49410;55.708;37.522;2023-03-03T18:11:17;97935.72;;;0.98;nan
63287;BME280;49410;55.708;37.522;2023-03-03T18:22:12;97921.25;;;0.99;nan
63287;BME280;49410;55.708;37.522;2023-03-03T18:32:41;97912.25;;;1.08;nan
63287;BME280;49410;55.708;37.522;2023-03-03T18:35:44;97936.97;;;1.22;nan
63287;BME280;49410;55.708;37.522;2023-03-03T18:49:11;97933.94;;;1.07;nan
63287;BME280;49410;55.708;37.522;2023-03-03T18:57:09;97926.22;;;0.94;nan
63287;BME280;49410;55.708;37.522;2023-03-03T19:18:22;97928.09;;;0.38;nan
63287;BME280;49410;55.708;37.522;2023-03-03T19:29:29;97910.72;;;-0.06;nan
63287;BME280;49410;55.708;37.522;2023-03-03T19:35:03;97921.81;;;-0.28;nan
63287;BME280;49410;55.708;37.522;2023-03-03T19:40:24;97922.09;;;-0.32;nan
63287;BME280;49410;55.708;37.522;2023-03-03T19:49:27;97920.69;;;-0.55;nan
63287;BME280;49410;55.708;37.522;2023-03-03T19:55:23;97925.38;;;-0.57;nan
63287;BME280;49410;55.708;37.522;2023-03-03T20:00:41;97900.66;;;-0.71;nan
63287;BME280;49410;55.708;37.522;2023-03-03T20:03:31;97920.28;;;-0.60;nan
63287;BME280;49410;55.708;37.522;2023-03-03T20:08:56;97899.41;;;-0.67;nan
63287;BME280;49410;55.708;37.522;2023-03-03T20:11:50;97910.09;;;-0.57;nan
63287;BME280;49410;55.708;37.522;2023-03-03T20:14:33;97889.22;;;-0.63;nan
63287;BME280;49410;55.708;37.522;2023-03-03T20:17:24;97900.50;;;-0.59;nan
63287;BME280;49410;55.708;37.522;2023-03-03T20:26:02;97885.53;;;-0.62;nan